Time;durP1;ratioP1;P1;durP2;ratioP2;P2;SDS_P1;SDS_P2;PMS_P1;PMS_P2;Temp;Humidity;BMP_temperature;BMP_pressure;BME280_temperature;BME280_humidity;BME280_pressure;Samples;Min_cycle;Max_cycle;Signal;HPM_P1;HPM_P2
2022/06/03 00:01:08;;;;;;;10.15;4.47;;;;;;;9.73;62.95;101623.34;5118883;28;20058;-66
2022/06/03 00:03:34;;;;;;;6.32;4.03;;;;;;;9.71;63.15;101623.44;5119128;28;20039;-67
2022/06/03 00:06:21;;;;;;;6.20;3.53;;;;;;;9.73;63.03;101631.38;5121531;28;20142;-67
2022/06/03 00:09:02;;;;;;;8.15;4.38;;;;;;;9.70;63.27;101629.78;5122518;28;20462;-67
2022/06/03 00:11:49;;;;;;;8.90;4.53;;;;;;;9.71;63.34;101628.81;5121399;28;20060;-67
2022/06/03 00:14:53;;;;;;;9.52;4.57;;;;;;;9.66;63.58;101630.19;5120419;28;20108;-67
2022/06/03 00:17:47;;;;;;;8.05;4.10;;;;;;;9.61;63.86;101621.69;5118182;28;20082;-67
2022/06/03 00:20:51;;;;;;;8.02;4.30;;;;;;;9.54;64.21;101619.56;5119750;28;20134;-67
2022/06/03 00:23:39;;;;;;;9.40;4.03;;;;;;;9.51;64.18;101619.81;5123821;28;20089;-67
2022/06/03 00:26:17;;;;;;;6.63;4.35;;;;;;;9.51;64.25;101625.19;5122678;28;20112;-66
2022/06/03 00:29:02;;;;;;;6.38;4.47;;;;;;;9.46;64.60;101624.72;5120766;28;20136;-66
2022/06/03 00:32:05;;;;;;;7.28;4.20;;;;;;;9.47;64.43;101622.88;5121566;28;20075;-66
2022/06/03 00:35:16;;;;;;;8.27;3.92;;;;;;;9.42;64.68;101619.75;5081256;28;20051;-67
2022/06/03 00:37:53;;;;;;;10.95;4.90;;;;;;;9.41;64.75;101616.22;5100932;28;20048;-67
2022/06/03 00:40:51;;;;;;;11.95;5.00;;;;;;;9.41;64.47;101623.41;5121007;28;20144;-66
2022/06/03 00:43:40;;;;;;;11.68;4.63;;;;;;;9.37;64.26;101619.28;5118593;28;20492;-67
2022/06/03 00:46:38;;;;;;;8.70;4.38;;;;;;;9.32;64.12;101623.19;5118585;28;20043;-67
2022/06/03 00:49:32;;;;;;;7.88;4.35;;;;;;;9.30;63.77;101618.94;5117958;28;20075;-68
2022/06/03 00:52:07;;;;;;;11.48;4.63;;;;;;;9.27;63.89;101619.25;5119271;28;20493;-68
2022/06/03 00:55:09;;;;;;;9.23;4.40;;;;;;;9.25;64.13;101621.19;5119068;28;20134;-66
2022/06/03 00:57:36;;;;;;;;;;;;;;;9.22;64.42;101611.53;5118171;28;20130;-66
2022/06/03 01:00:24;;;;;;;6.10;4.15;;;;;;;9.17;64.22;101615.59;5119443;28;19974;-67
2022/06/03 01:03:14;;;;;;;9.35;4.70;;;;;;;9.18;64.49;101609.25;5120180;28;20121;-67
2022/06/03 01:09:29;;;;;;;10.52;4.55;;;;;;;9.08;65.02;101614.53;5115960;28;20562;-68
2022/06/03 01:12:05;;;;;;;9.25;4.97;;;;;;;9.05;65.33;101612.94;5119412;28;20094;-68
2022/06/03 01:14:43;;;;;;;9.85;4.80;;;;;;;9.04;65.34;101616.63;5117595;28;20474;-67
2022/06/03 01:17:22;;;;;;;11.05;5.30;;;;;;;8.96;65.69;101611.06;5117126;28;20071;-68
2022/06/03 01:20:19;;;;;;;8.32;5.10;;;;;;;8.97;65.94;101615.44;5118085;28;20501;-68
2022/06/03 01:23:04;;;;;;;7.07;4.68;;;;;;;8.97;65.98;101612.75;5116285;28;20056;-68
2022/06/03 01:25:51;;;;;;;9.02;5.30;;;;;;;8.95;66.23;101619.22;5120038;28;20086;-68
2022/06/03 01:28:55;;;;;;;8.52;4.65;;;;;;;8.88;66.30;101613.50;5117292;28;20130;-67
2022/06/03 01:31:24;;;;;;;8.57;5.10;;;;;;;8.83;66.78;101615.72;5117637;28;20058;-68
2022/06/03 01:34:22;;;;;;;8.25;4.38;;;;;;;8.82;66.62;101619.41;5118558;28;20075;-68
2022/06/03 01:37:13;;;;;;;8.18;4.75;;;;;;;8.77;66.67;101611.72;5118233;28;20071;-68
2022/06/03 01:39:58;;;;;;;8.48;4.85;;;;;;;8.79;66.75;101620.50;5119572;28;20145;-68
2022/06/03 01:42:45;;;;;;;9.18;4.20;;;;;;;8.78;66.80;101609.91;5118418;28;20112;-68
2022/06/03 01:45:44;;;;;;;6.30;3.92;;;;;;;8.74;67.03;101608.47;5121456;28;20054;-68
2022/06/03 01:48:28;;;;;;;8.20;4.82;;;;;;;8.70;67.01;101610.53;5121213;28;20047;-68
2022/06/03 01:51:01;;;;;;;8.23;4.28;;;;;;;8.72;66.94;101616.63;5119448;28;20094;-67
2022/06/03 01:53:39;;;;;;;9.43;5.00;;;;;;;8.65;67.27;101611.91;5119504;28;20048;-68
2022/06/03 01:56:34;;;;;;;8.85;4.40;;;;;;;8.59;67.42;101603.41;5118480;28;20083;-68
2022/06/03 01:59:04;;;;;;;5.90;3.83;;;;;;;8.63;67.26;101597.78;5119170;28;20066;-67
2022/06/03 02:01:59;;;;;;;8.70;4.32;;;;;;;8.61;67.19;101604.13;5119996;28;20096;-67
2022/06/03 02:04:42;;;;;;;7.68;4.47;;;;;;;8.60;67.31;101594.38;5120907;28;20101;-67
2022/06/03 02:07:35;;;;;;;8.77;4.80;;;;;;;8.54;67.36;101600.25;5120520;28;20071;-66
2022/06/03 02:10:39;;;;;;;7.20;4.53;;;;;;;8.55;67.45;101601.97;5118972;28;20097;-66
2022/06/03 02:13:45;;;;;;;7.97;3.90;;;;;;;8.51;67.54;101610.38;5120429;28;20480;-67
2022/06/03 02:16:27;;;;;;;6.45;3.70;;;;;;;8.44;67.76;101615.34;5120323;28;20079;-66
2022/06/03 02:19:14;;;;;;;;;;;;;;;8.43;67.81;101612.78;5118188;28;20073;-66
2022/06/03 02:22:17;;;;;;;7.30;4.05;;;;;;;8.43;67.65;101608.28;5118989;28;19967;-67
2022/06/03 02:25:13;;;;;;;7.70;3.50;;;;;;;8.40;67.84;101608.56;5120381;28;20078;-67
2022/06/03 02:27:58;;;;;;;6.50;3.70;;;;;;;8.33;67.86;101612.69;5121153;28;20048;-67
2022/06/03 02:30:46;;;;;;;6.78;3.92;;;;;;;8.30;68.08;101618.31;5119514;28;20090;-67
2022/06/03 02:33:45;;;;;;;5.78;3.88;;;;;;;8.28;68.13;101614.88;5119233;28;20139;-67
2022/06/03 02:36:11;;;;;;;7.88;4.15;;;;;;;8.27;68.34;101614.03;5118919;28;20056;-67
2022/06/03 02:38:59;;;;;;;9.88;4.82;;;;;;;8.31;67.98;101606.63;5117208;28;20044;-67
2022/06/03 02:41:26;;;;;;;7.88;4.72;;;;;;;8.30;68.36;101612.94;5117214;28;20488;-67
2022/06/03 02:44:30;;;;;;;8.32;4.82;;;;;;;8.29;68.16;101604.06;5120930;28;20106;-67
2022/06/03 02:47:36;;;;;;;8.82;4.05;;;;;;;8.26;68.66;101606.13;5124343;28;20070;-66
2022/06/03 02:50:25;;;;;;;9.68;4.90;;;;;;;8.22;68.85;101602.84;5123677;28;20146;-66
2022/06/03 02:53:29;;;;;;;7.18;4.95;;;;;;;8.25;68.67;101599.94;5121622;28;20460;-66
2022/06/03 02:56:13;;;;;;;9.80;4.55;;;;;;;8.21;68.64;101595.81;5122695;28;20078;-66
2022/06/03 02:59:03;;;;;;;9.48;4.88;;;;;;;8.22;68.97;101602.00;5122491;28;20448;-66
2022/06/03 03:01:38;;;;;;;8.32;4.53;;;;;;;8.25;68.78;101602.59;5123740;28;20074;-66
2022/06/03 03:04:35;;;;;;;9.13;4.55;;;;;;;8.24;68.84;101594.72;5125468;28;20106;-66
2022/06/03 03:07:04;;;;;;;11.07;5.13;;;;;;;8.23;69.11;101595.72;5123848;28;20531;-66
2022/06/03 03:09:53;;;;;;;10.02;5.68;;;;;;;8.22;69.00;101592.16;5121142;28;20130;-66
2022/06/03 03:12:37;;;;;;;7.90;4.65;;;;;;;8.21;69.07;101598.50;5120219;28;20135;-66
2022/06/03 03:15:33;;;;;;;6.65;4.40;;;;;;;8.23;69.11;101601.91;5120281;28;20082;-66
2022/06/03 03:18:44;;;;;;;6.55;4.38;;;;;;;8.31;68.97;101606.63;5123613;28;20117;-66
2022/06/03 03:21:26;;;;;;;5.70;4.50;;;;;;;8.34;68.78;101607.22;5066457;28;20482;-66
2022/06/03 03:24:11;;;;;;;6.60;4.40;;;;;;;8.38;68.85;101605.16;5122425;28;20491;-66
2022/06/03 03:27:10;;;;;;;6.55;4.40;;;;;;;8.40;68.57;101608.56;5124099;28;20113;-66
2022/06/03 03:29:42;;;;;;;7.22;4.40;;;;;;;8.45;68.34;101603.69;5123029;28;20100;-66
2022/06/03 03:32:46;;;;;;;6.82;4.15;;;;;;;8.55;67.96;101612.66;5123459;28;20074;-66
2022/06/03 03:35:48;;;;;;;7.10;4.28;;;;;;;8.61;67.85;101611.31;5122199;28;20139;-66
2022/06/03 03:38:36;;;;;;;13.95;4.88;;;;;;;8.65;67.91;101607.41;5101897;28;20127;-66
2022/06/03 03:41:22;;;;;;;9.15;4.30;;;;;;;8.71;67.58;101606.03;5121091;28;20075;-66
2022/06/03 03:44:31;;;;;;;10.82;4.50;;;;;;;8.71;67.81;101609.59;5120102;28;20048;-66
2022/06/03 03:47:33;;;;;;;9.00;4.22;;;;;;;8.77;67.61;101605.53;5122713;28;20077;-66
2022/06/03 03:50:21;;;;;;;15.73;4.82;;;;;;;8.79;67.47;101609.78;5122503;28;20071;-66
2022/06/03 03:53:37;;;;;;;7.80;4.55;;;;;;;8.83;67.97;101605.03;5122670;28;20539;-66
2022/06/03 03:56:06;;;;;;;10.25;4.60;;;;;;;8.94;67.93;101610.34;5017042;28;20049;-66
2022/06/03 03:59:00;;;;;;;6.97;5.03;;;;;;;8.95;67.64;101617.38;5120362;28;20068;-66
2022/06/03 04:02:05;;;;;;;12.05;5.50;;;;;;;8.99;67.44;101620.66;5120966;28;20131;-66
2022/06/03 04:04:31;;;;;;;6.88;4.20;;;;;;;9.05;67.24;101612.94;5118790;28;20392;-67
2022/06/03 04:07:08;;;;;;;9.50;4.18;;;;;;;9.11;67.49;101608.94;5119825;28;20047;-66
2022/06/03 04:09:46;;;;;;;9.98;5.63;;;;;;;9.05;67.10;101612.94;5120240;28;20131;-66
2022/06/03 04:12:22;;;;;;;11.88;5.50;;;;;;;9.09;66.84;101610.88;5117081;28;20094;-68
2022/06/03 04:15:02;;;;;;;9.05;4.88;;;;;;;9.18;67.18;101619.97;5118674;28;20439;-67
2022/06/03 04:17:44;;;;;;;10.73;4.93;;;;;;;9.16;67.41;101629.94;5117688;28;20078;-67
2022/06/03 04:20:25;;;;;;;;;;;;;;;9.14;66.93;101629.25;5118335;28;20138;-67
2022/06/03 04:23:17;;;;;;;31.48;13.63;;;;;;;9.18;66.71;101625.31;5117810;28;20042;-68
2022/06/03 04:26:12;;;;;;;41.73;14.80;;;;;;;9.21;66.52;101617.03;5118969;28;20424;-66
2022/06/03 04:29:02;;;;;;;38.60;16.63;;;;;;;9.23;65.26;101623.97;5118367;28;20305;-66
2022/06/03 04:31:55;;;;;;;26.60;12.90;;;;;;;9.32;65.62;101625.03;5118296;28;20079;-66
2022/06/03 04:34:29;;;;;;;40.10;14.73;;;;;;;9.34;65.59;101624.94;5073533;28;20449;-68
2022/06/03 04:37:08;;;;;;;40.97;15.10;;;;;;;9.35;65.81;101631.97;5118178;28;20043;-66
2022/06/03 04:40:11;;;;;;;36.97;15.18;;;;;;;9.36;65.70;101622.94;5118025;28;20142;-67
2022/06/03 04:43:12;;;;;;;37.78;16.88;;;;;;;9.40;65.31;101619.88;5119988;28;20090;-67
2022/06/03 04:46:05;;;;;;;44.03;17.25;;;;;;;9.43;65.13;101635.69;5120073;28;20047;-67
2022/06/03 04:48:54;;;;;;;41.38;15.70;;;;;;;9.39;64.75;101636.09;5083069;28;20056;-67
2022/06/03 04:51:24;;;;;;;41.08;15.60;;;;;;;9.47;64.43;101633.59;5118596;28;20104;-66
2022/06/03 04:54:09;;;;;;;34.15;14.48;;;;;;;9.51;64.19;101633.22;5118967;28;20079;-67
2022/06/03 04:57:00;;;;;;;50.28;15.30;;;;;;;9.50;63.98;101639.53;5119596;28;20086;-67
2022/06/03 05:00:11;;;;;;;38.13;14.77;;;;;;;9.57;64.08;101638.03;5118062;28;20062;-67
2022/06/03 05:03:15;;;;;;;29.08;12.98;;;;;;;9.60;63.96;101636.91;5088039;28;20047;-67
2022/06/03 05:05:48;;;;;;;24.77;10.82;;;;;;;9.63;63.58;101639.34;5117699;28;20108;-67
2022/06/03 05:08:43;;;;;;;28.92;11.35;;;;;;;9.73;62.74;101636.72;5117994;28;20079;-67
2022/06/03 05:11:37;;;;;;;26.60;10.57;;;;;;;9.77;62.61;101636.31;5118694;28;20538;-67
2022/06/03 05:14:22;;;;;;;27.67;9.70;;;;;;;9.83;62.39;101634.94;5118054;28;20135;-67
2022/06/03 05:17:07;;;;;;;23.80;8.30;;;;;;;9.90;61.68;101638.78;5118651;28;20077;-67
2022/06/03 05:19:43;;;;;;;14.30;7.75;;;;;;;9.94;61.50;101642.06;5119388;28;20075;-66
2022/06/03 05:22:48;;;;;;;18.52;7.72;;;;;;;9.94;60.99;101640.22;5119600;28;20511;-67
2022/06/03 05:25:37;;;;;;;12.00;6.20;;;;;;;10.07;60.59;101650.72;5120141;28;20048;-67
2022/06/03 05:28:23;;;;;;;11.77;5.28;;;;;;;10.07;60.19;101655.25;5118574;28;20085;-66
2022/06/03 05:31:11;;;;;;;12.70;4.75;;;;;;;10.15;59.75;101652.72;5117985;28;20051;-67
2022/06/03 05:34:09;;;;;;;13.07;4.72;;;;;;;10.15;59.29;101658.94;5116882;28;20428;-66
2022/06/03 05:37:05;;;;;;;11.18;4.03;;;;;;;10.22;59.25;101644.00;5119723;28;20552;-67
2022/06/03 05:39:58;;;;;;;12.85;4.70;;;;;;;10.34;59.01;101644.78;5114496;28;20055;-67
2022/06/03 05:42:59;;;;;;;10.15;3.72;;;;;;;10.34;59.18;101649.25;5119454;28;20071;-66
2022/06/03 05:45:44;;;;;;;6.15;3.38;;;;;;;10.43;58.54;101645.78;5117383;28;20047;-67
2022/06/03 05:48:27;;;;;;;6.47;3.22;;;;;;;10.57;57.83;101642.72;5118927;28;20386;-67
2022/06/03 05:51:10;;;;;;;7.95;2.97;;;;;;;10.68;57.56;101644.44;5117636;28;20135;-66
2022/06/03 05:53:38;;;;;;;9.20;3.30;;;;;;;10.73;57.34;101647.56;5118666;28;20045;-66
2022/06/03 05:56:36;;;;;;;5.05;2.83;;;;;;;10.76;56.81;101633.88;5117522;28;20048;-66
2022/06/03 05:59:37;;;;;;;9.60;2.88;;;;;;;10.90;56.60;101628.09;5120198;28;20050;-66
2022/06/03 06:02:27;;;;;;;6.63;2.83;;;;;;;11.04;56.25;101634.06;5118787;28;20051;-66
2022/06/03 06:05:06;;;;;;;7.57;3.10;;;;;;;11.02;55.79;101627.97;5119395;28;20470;-66
2022/06/03 06:07:41;;;;;;;7.70;2.70;;;;;;;11.11;55.60;101624.44;5118119;28;20131;-66
2022/06/03 06:10:51;;;;;;;5.40;2.72;;;;;;;11.27;55.40;101618.47;5121127;28;20090;-67
2022/06/03 06:13:40;;;;;;;9.88;3.35;;;;;;;11.38;55.22;101626.41;5107053;28;20079;-66
2022/06/03 06:16:30;;;;;;;5.53;2.47;;;;;;;11.34;54.98;101623.13;5101394;28;20052;-67
2022/06/03 06:19:12;;;;;;;5.32;2.40;;;;;;;11.49;54.45;101611.97;5122851;28;20134;-67
2022/06/03 06:22:04;;;;;;;5.10;2.00;;;;;;;11.65;53.94;101613.03;5106836;28;20094;-67
2022/06/03 06:25:05;;;;;;;9.18;2.45;;;;;;;11.71;53.64;101613.47;5123855;28;20117;-69
2022/06/03 06:27:35;;;;;;;2.28;1.98;;;;;;;11.88;52.61;101610.03;5125080;28;20456;-70
2022/06/03 06:30:42;;;;;;;3.20;1.52;;;;;;;11.97;52.87;101608.28;5124964;28;20403;-69
2022/06/03 06:33:12;;;;;;;3.92;2.13;;;;;;;12.10;51.10;101606.94;5124201;28;20079;-69
2022/06/03 06:36:16;;;;;;;9.18;2.40;;;;;;;12.26;50.73;101600.09;5124815;28;20082;-70
2022/06/03 06:38:48;;;;;;;3.45;1.60;;;;;;;12.57;49.87;101606.00;5125135;28;20079;-69
2022/06/03 06:42:02;;;;;;;2.90;1.65;;;;;;;12.76;49.39;101605.03;5106690;28;20134;-67
2022/06/03 06:45:03;;;;;;;4.15;1.83;;;;;;;13.00;49.46;101601.72;5021047;28;20046;-67
2022/06/03 06:47:35;;;;;;;4.22;1.58;;;;;;;13.16;48.64;101603.75;5002487;28;20049;-64
2022/06/03 06:50:16;;;;;;;4.25;1.65;;;;;;;13.37;47.71;101604.25;5020574;28;20509;-65
2022/06/03 06:52:54;;;;;;;4.20;1.17;;;;;;;13.61;46.95;101606.25;5019446;28;20054;-66
2022/06/03 06:55:34;;;;;;;2.65;1.70;;;;;;;13.81;46.56;101609.63;5016711;28;20050;-66
2022/06/03 06:58:27;;;;;;;10.07;2.17;;;;;;;14.06;45.43;101599.78;5016943;28;20542;-65
2022/06/03 07:00:56;;;;;;;13.27;2.60;;;;;;;14.09;45.25;101593.25;5020488;28;20094;-66
2022/06/03 07:03:50;;;;;;;5.93;2.03;;;;;;;14.28;44.26;101598.34;5018159;28;20061;-65
2022/06/03 07:06:40;;;;;;;9.68;1.58;;;;;;;14.50;44.52;101594.22;5019196;28;20046;-66
2022/06/03 07:09:10;;;;;;;4.30;1.40;;;;;;;14.51;43.70;101590.50;5014342;28;20050;-65
2022/06/03 07:12:12;;;;;;;5.18;1.85;;;;;;;14.89;42.99;101589.09;5019000;28;20082;-65
2022/06/03 07:14:53;;;;;;;4.35;1.55;;;;;;;15.32;42.67;101594.31;5020551;28;20482;-65
2022/06/03 07:20:28;;;;;;;1.83;1.55;;;;;;;15.70;40.61;101590.91;5121284;28;20125;-64
2022/06/03 07:23:03;;;;;;;5.72;1.63;;;;;;;16.08;39.53;101585.69;5125594;28;20079;-65
2022/06/03 07:25:45;;;;;;;5.75;1.52;;;;;;;16.49;39.16;101590.06;5124666;28;20078;-65
2022/06/03 07:28:25;;;;;;;4.45;1.80;;;;;;;16.99;37.81;101592.31;5120958;28;20450;-66
2022/06/03 07:31:28;;;;;;;5.90;2.58;;;;;;;17.35;37.24;101580.84;5120539;28;20138;-65
2022/06/03 07:33:57;;;;;;;7.38;1.83;;;;;;;;;;5105181;28;20472;-66
2022/06/03 07:36:55;;;;;;;7.35;1.67;;;;;;;17.42;35.55;101584.50;5121333;28;20425;-64
2022/06/03 07:39:49;;;;;;;2.65;1.27;;;;;;;17.63;35.66;101585.66;5120406;28;20078;-65
2022/06/03 07:42:32;;;;;;;6.80;1.48;;;;;;;17.64;35.99;101576.47;5120156;28;20130;-65
2022/06/03 07:45:36;;;;;;;4.43;1.70;;;;;;;18.03;34.83;101571.63;5120518;28;20051;-65
2022/06/03 07:48:13;;;;;;;2.72;1.15;;;;;;;17.97;34.56;101566.94;5120283;28;20063;-66
2022/06/03 07:51:20;;;;;;;2.97;1.40;;;;;;;17.31;35.18;101568.66;5120755;28;20410;-63
2022/06/03 07:54:20;;;;;;;3.83;1.30;;;;;;;17.94;34.84;101567.31;5119458;28;20403;-64
2022/06/03 07:56:46;;;;;;;5.00;1.73;;;;;;;18.20;33.72;101565.97;5121017;28;20095;-64
2022/06/03 07:59:18;;;;;;;2.95;1.35;;;;;;;18.61;32.94;101559.97;5120797;28;20119;-64
2022/06/03 08:01:56;;;;;;;;;;;;;;;18.77;32.89;101570.59;5120531;28;20071;-63
2022/06/03 08:04:30;;;;;;;6.25;1.75;;;;;;;18.94;32.45;101566.63;5120517;28;19920;-66
2022/06/03 08:12:34;;;;;;;5.65;1.70;;;;;;;19.43;31.18;101552.16;5121066;28;20052;-64
2022/06/03 08:15:29;;;;;;;3.30;1.40;;;;;;;18.92;31.70;101555.09;5120208;28;20055;-64
2022/06/03 08:17:56;;;;;;;3.80;1.90;;;;;;;18.15;32.23;101549.44;5116660;28;20085;-65
2022/06/03 08:20:26;;;;;;;2.72;1.45;;;;;;;18.77;31.50;101562.44;5119365;28;20486;-64
2022/06/03 08:22:54;;;;;;;4.20;1.10;;;;;;;18.48;31.09;101556.09;5118600;28;20058;-64
2022/06/03 08:25:27;;;;;;;4.63;1.70;;;;;;;18.89;30.14;101569.03;5120700;28;20075;-66
2022/06/03 08:27:58;;;;;;;3.78;1.42;;;;;;;19.77;29.78;101552.41;5123705;28;20077;-65
2022/06/03 08:30:27;;;;;;;3.25;1.58;;;;;;;20.33;29.80;101563.94;5120421;28;20043;-65
2022/06/03 08:32:58;;;;;;;5.68;1.60;;;;;;;20.62;28.62;101562.78;5118658;28;20475;-65
2022/06/03 08:35:33;;;;;;;6.00;1.23;;;;;;;20.64;28.65;101559.88;5120200;28;20083;-65
2022/06/03 08:38:06;;;;;;;4.18;1.70;;;;;;;19.91;29.14;101559.59;5120737;28;20047;-65
2022/06/03 08:41:04;;;;;;;4.47;1.40;;;;;;;20.35;28.86;101563.72;5116636;28;20082;-66
2022/06/03 08:43:49;;;;;;;6.25;1.35;;;;;;;20.46;29.14;101557.72;5120513;28;20079;-65
2022/06/03 08:46:23;;;;;;;6.07;1.58;;;;;;;20.07;29.26;101559.22;5120410;28;20071;-66
2022/06/03 08:48:52;;;;;;;1.77;1.38;;;;;;;19.80;29.88;101558.28;5118435;28;20144;-64
2022/06/03 08:51:32;;;;;;;3.33;1.33;;;;;;;20.01;29.72;101553.78;5118826;28;20474;-65
2022/06/03 08:54:18;;;;;;;7.47;1.42;;;;;;;20.47;29.69;101547.66;5118096;28;20154;-65
2022/06/03 08:56:47;;;;;;;2.03;1.30;;;;;;;20.73;29.95;101542.28;5118826;28;20112;-66
2022/06/03 08:59:21;;;;;;;3.80;1.40;;;;;;;20.80;28.19;101537.66;5120293;28;20111;-65
2022/06/03 09:02:01;;;;;;;5.60;1.40;;;;;;;21.60;27.29;101537.63;5119833;28;20051;-65
2022/06/03 09:04:39;;;;;;;3.17;1.42;;;;;;;21.03;28.33;101539.13;5119402;28;20572;-65
2022/06/03 09:07:28;;;;;;;2.47;1.23;;;;;;;21.42;27.18;101535.53;5120754;28;20376;-65
2022/06/03 09:10:11;;;;;;;5.22;1.60;;;;;;;21.05;26.88;101529.69;5120484;28;20138;-65
2022/06/03 09:12:49;;;;;;;2.65;1.20;;;;;;;20.67;28.29;101530.31;5119908;28;20111;-64
2022/06/03 09:15:22;;;;;;;2.33;1.15;;;;;;;20.79;28.62;101533.25;5119238;28;20048;-64
2022/06/03 09:18:03;;;;;;;3.47;1.40;;;;;;;21.27;28.73;101533.06;5117667;28;20048;-65
2022/06/03 09:20:33;;;;;;;7.20;1.47;;;;;;;20.95;28.21;101528.44;5119227;28;20070;-65
2022/06/03 09:23:04;;;;;;;3.10;1.35;;;;;;;20.54;27.01;101526.72;5118267;28;20298;-65
2022/06/03 09:25:32;;;;;;;4.95;1.40;;;;;;;20.54;28.59;101527.56;5119051;28;20043;-65
2022/06/03 09:28:02;;;;;;;4.85;1.23;;;;;;;21.28;30.05;101518.34;5119429;28;20054;-65
2022/06/03 09:30:37;;;;;;;9.07;1.50;;;;;;;22.09;25.84;101519.84;5119930;28;20058;-66
2022/06/03 09:33:07;;;;;;;4.55;1.35;;;;;;;21.71;26.44;101523.31;5119749;28;20281;-65
2022/06/03 09:35:38;;;;;;;4.38;1.30;;;;;;;21.34;27.03;101525.69;5118110;28;20040;-64
2022/06/03 09:38:06;;;;;;;8.02;1.50;;;;;;;21.62;28.42;101509.03;5117486;28;20135;-66
2022/06/03 09:40:41;;;;;;;7.07;1.15;;;;;;;21.96;26.42;101515.25;5118776;28;20527;-65
2022/06/03 09:43:11;;;;;;;4.20;1.42;;;;;;;22.37;26.55;101499.50;5118619;28;20134;-65
2022/06/03 09:45:46;;;;;;;4.18;1.30;;;;;;;22.40;26.56;101499.06;5118230;28;20135;-65
2022/06/03 09:48:22;;;;;;;4.03;1.35;;;;;;;22.10;26.41;101494.16;5121580;28;20055;-66
2022/06/03 09:50:51;;;;;;;3.75;1.02;;;;;;;21.95;26.47;101494.47;5119706;28;20074;-66
2022/06/03 09:53:21;;;;;;;4.18;1.30;;;;;;;22.14;26.27;101489.94;5122764;28;20079;-66
2022/06/03 09:55:57;;;;;;;3.95;1.17;;;;;;;22.40;27.80;101483.50;5122201;28;20100;-65
2022/06/03 09:58:29;;;;;;;5.88;1.40;;;;;;;23.12;24.28;101491.34;5121682;28;20134;-66
2022/06/03 10:00:57;;;;;;;6.88;1.10;;;;;;;23.69;23.62;101483.81;5123811;28;20047;-66
2022/06/03 10:03:26;;;;;;;4.70;1.17;;;;;;;22.63;25.08;101474.72;5124152;28;20411;-67
2022/06/03 10:05:55;;;;;;;5.18;1.10;;;;;;;22.88;24.77;101473.88;5124311;28;20054;-67
2022/06/03 10:12:48;;;;;;;2.63;1.05;;;;;;;22.38;24.90;101469.19;5123645;28;20483;-67
2022/06/03 10:14:03;;;;;;;3.85;1.60;;;;;;;22.00;26.01;101472.78;5121978;28;20051;-67
2022/06/03 10:16:30;;;;;;;6.80;1.50;;;;;;;21.60;27.63;101467.47;5121991;28;20138;-64
2022/06/03 10:18:57;;;;;;;2.65;1.30;;;;;;;21.77;27.23;101469.69;5122509;28;20131;-66
2022/06/03 10:21:25;;;;;;;5.78;1.63;;;;;;;22.61;25.16;101479.59;5122889;28;20074;-66
2022/06/03 10:23:51;;;;;;;1.70;1.13;;;;;;;22.36;26.54;101474.06;5121324;28;20316;-66
2022/06/03 10:26:37;;;;;;;2.13;1.20;;;;;;;21.64;25.32;101476.06;5124342;28;20069;-66
2022/06/03 10:29:15;;;;;;;3.00;1.20;;;;;;;22.43;26.44;101469.38;5123545;28;20154;-67
2022/06/03 10:31:51;;;;;;;3.85;1.08;;;;;;;22.56;26.60;101471.19;5124621;28;20547;-66
2022/06/03 10:34:27;;;;;;;3.72;1.25;;;;;;;22.83;25.80;101465.50;5123352;28;20476;-66
2022/06/03 10:36:56;;;;;;;4.80;1.25;;;;;;;22.67;26.41;101461.44;5125244;28;20052;-67
2022/06/03 10:39:30;;;;;;;3.25;1.20;;;;;;;23.66;23.52;101454.97;5122346;28;20059;-67
2022/06/03 10:41:58;;;;;;;3.47;1.02;;;;;;;22.93;24.70;101460.38;5123090;28;20452;-67
2022/06/03 10:44:33;;;;;;;2.50;1.10;;;;;;;22.30;25.77;101467.56;5122655;28;20081;-66
2022/06/03 10:47:06;;;;;;;1.20;0.90;;;;;;;21.73;26.19;101458.38;5123179;28;20055;-66
2022/06/03 10:49:51;;;;;;;6.60;1.30;;;;;;;21.88;25.74;101454.59;5121783;28;20051;-66
2022/06/03 11:01:08;;;;;;;2.92;1.23;;;;;;;20.12;29.04;101436.03;5125130;28;20048;-67
2022/06/03 11:03:41;;;;;;;3.78;1.30;;;;;;;20.12;29.31;101436.88;5118142;28;20052;-67
2022/06/03 11:06:15;;;;;;;3.35;1.30;;;;;;;19.89;28.40;101434.50;5120762;28;20100;-66
2022/06/03 11:09:00;;;;;;;2.67;1.27;;;;;;;19.60;28.50;101438.34;5121389;28;20225;-67
2022/06/03 11:11:32;;;;;;;3.30;1.30;;;;;;;19.98;31.14;101429.72;5122668;28;20059;-66
2022/06/03 11:14:23;;;;;;;5.97;1.35;;;;;;;20.16;31.07;101429.13;5120006;28;20134;-66
2022/06/03 11:16:53;;;;;;;3.47;1.17;;;;;;;20.70;28.97;101425.44;5120304;28;20075;-66
2022/06/03 11:19:20;;;;;;;5.10;1.25;;;;;;;20.56;28.88;101427.34;5119865;28;20135;-67
2022/06/03 11:21:47;;;;;;;3.58;1.52;;;;;;;20.42;27.82;101426.50;5121780;28;20465;-65
2022/06/03 11:24:14;;;;;;;2.63;1.27;;;;;;;20.90;28.26;101412.63;5119003;28;20053;-65
2022/06/03 11:26:45;;;;;;;6.07;1.33;;;;;;;21.37;28.73;101416.09;5120897;28;20480;-66
2022/06/03 11:29:26;;;;;;;4.50;1.00;;;;;;;20.91;27.84;101406.13;5121434;28;20051;-66
2022/06/03 11:31:55;;;;;;;3.08;1.50;;;;;;;20.68;28.08;101397.53;5121830;28;20059;-66
2022/06/03 11:35:03;;;;;;;8.88;1.45;;;;;;;20.55;28.16;101386.63;5119821;28;20131;-66
2022/06/03 11:37:41;;;;;;;1.58;1.08;;;;;;;20.10;29.20;101389.94;5017032;28;20049;-68
2022/06/03 11:40:20;;;;;;;6.13;1.55;;;;;;;19.68;31.13;101381.03;5018695;28;20061;-68
2022/06/03 11:42:56;;;;;;;3.05;1.17;;;;;;;19.47;29.33;101373.81;5018481;28;20054;-66
2022/06/03 11:45:39;;;;;;;2.67;1.20;;;;;;;18.96;29.50;101367.91;5017635;28;20100;-66
2022/06/03 11:48:30;;;;;;;3.15;1.27;;;;;;;18.98;30.41;101369.41;5019922;28;20097;-67
2022/06/03 11:50:58;;;;;;;3.50;1.70;;;;;;;19.27;29.39;101360.13;5018866;28;20096;-64
2022/06/03 11:53:29;;;;;;;2.80;1.60;;;;;;;19.40;29.92;101351.19;5019072;28;20072;-66
2022/06/03 11:56:02;;;;;;;3.20;1.43;;;;;;;19.55;31.10;101352.91;5018013;28;20483;-66
2022/06/03 11:58:46;;;;;;;2.70;1.50;;;;;;;19.32;29.30;101337.78;5018396;28;20309;-66
2022/06/03 12:01:22;;;;;;;2.05;1.23;;;;;;;19.18;29.47;101346.91;5017767;28;20088;-66
2022/06/03 12:04:00;;;;;;;6.00;1.38;;;;;;;19.23;32.88;101345.25;5019090;28;20070;-65
2022/06/03 12:06:39;;;;;;;2.10;1.02;;;;;;;19.29;32.89;101340.91;5017410;28;20070;-65
2022/06/03 12:09:20;;;;;;;2.30;1.20;;;;;;;19.34;30.77;101335.66;5107451;28;20145;-66
2022/06/03 12:14:42;;;;;;;8.02;0.88;;;;;;;19.20;30.59;101329.34;5119132;28;20075;-66
2022/06/03 12:17:09;;;;;;;3.05;0.90;;;;;;;19.10;29.77;101330.75;5119561;28;20079;-65
2022/06/03 12:19:42;;;;;;;4.00;1.20;;;;;;;19.02;29.85;101315.44;5120520;28;20051;-66
2022/06/03 12:22:15;;;;;;;5.20;1.90;;;;;;;19.13;30.31;101319.47;5119244;28;20067;-66
2022/06/03 12:24:58;;;;;;;6.38;1.55;;;;;;;19.36;29.26;101320.00;5119194;28;20422;-67
2022/06/03 12:27:29;;;;;;;2.80;1.25;;;;;;;19.30;31.07;101317.25;5120644;28;20503;-66
2022/06/03 12:30:26;;;;;;;4.70;1.70;;;;;;;19.48;29.98;101323.81;5118335;28;20043;-66
2022/06/03 12:33:03;;;;;;;3.25;1.40;;;;;;;19.46;28.97;101306.84;5118678;28;20074;-66
2022/06/03 12:35:41;;;;;;;2.30;1.33;;;;;;;19.37;31.75;101310.78;5120210;28;20048;-66
2022/06/03 12:38:21;;;;;;;3.00;1.10;;;;;;;19.40;32.74;101301.38;5123027;28;20122;-63
2022/06/03 12:40:50;;;;;;;2.13;0.80;;;;;;;19.46;28.98;101306.00;5121379;28;20059;-65
2022/06/03 12:43:29;;;;;;;1.95;1.35;;;;;;;19.29;28.44;101302.81;5118071;28;20086;-65
2022/06/03 12:46:00;;;;;;;3.83;1.10;;;;;;;19.42;30.36;101288.41;5120491;28;20051;-64
2022/06/03 12:48:35;;;;;;;;;;;;;;;19.21;34.27;101292.94;5122828;28;20061;-64
2022/06/03 12:51:23;;;;;;;7.60;1.75;;;;;;;19.30;31.41;101288.16;5120544;28;19919;-66
2022/06/03 12:54:12;;;;;;;6.93;1.35;;;;;;;19.28;33.06;101276.66;5117743;28;20047;-64
2022/06/03 12:57:12;;;;;;;5.68;1.42;;;;;;;19.24;31.39;101275.38;5117925;28;20083;-64
2022/06/03 13:00:07;;;;;;;6.18;1.17;;;;;;;19.42;29.74;101275.66;5118938;28;20047;-64
2022/06/03 13:02:54;;;;;;;2.28;1.17;;;;;;;19.35;29.06;101273.97;5107060;28;20071;-65
2022/06/03 13:05:49;;;;;;;4.57;1.10;;;;;;;19.28;29.46;101265.78;5120463;28;20395;-66
2022/06/03 13:08:28;;;;;;;4.05;1.25;;;;;;;19.28;29.67;101263.06;5121064;28;20077;-64
2022/06/03 13:11:08;;;;;;;10.68;1.70;;;;;;;19.21;33.59;101259.47;5119907;28;20083;-64